Time;durP1;ratioP1;P1;durP2;ratioP2;P2;SDS_P1;SDS_P2;PMS_P1;PMS_P2;Temp;Humidity;BMP_temperature;BMP_pressure;BME280_temperature;BME280_humidity;BME280_pressure;Samples;Min_cycle;Max_cycle;Signal;HPM_P1;HPM_P2
2022/01/30 00:01:01;;;;;;;3.83;3.53;;;5.00;99.90;;;;;;459872;258;27576;-68
2022/01/30 00:03:00;;;;;;;3.80;3.50;;;4.90;99.90;;;;;;459857;258;27582;-68
2022/01/30 00:05:01;;;;;;;3.47;3.20;;;4.90;99.90;;;;;;459865;258;27478;-70
2022/01/30 00:07:02;;;;;;;3.67;3.33;;;5.00;99.90;;;;;;459850;258;27498;-70
2022/01/30 00:09:05;;;;;;;3.22;3.03;;;5.00;99.90;;;;;;459869;258;27806;-68
2022/01/30 00:11:13;;;;;;;3.50;3.20;;;5.00;99.90;;;;;;459861;258;27463;-70
2022/01/30 00:13:08;;;;;;;2.90;2.70;;;5.00;99.90;;;;;;459899;258;27502;-68
2022/01/30 00:15:07;;;;;;;2.90;2.70;;;5.10;99.90;;;;;;459841;258;27991;-68
2022/01/30 00:17:18;;;;;;;2.92;2.72;;;5.10;99.90;;;;;;459851;258;27992;-68
2022/01/30 00:19:22;;;;;;;2.50;2.30;;;5.10;99.90;;;;;;459867;258;27480;-68
2022/01/30 00:21:32;;;;;;;2.42;2.30;;;5.10;99.90;;;;;;459877;258;27510;-68
2022/01/30 00:23:24;;;;;;;2.90;2.70;;;5.10;99.90;;;;;;459766;258;27975;-68
2022/01/30 00:25:31;;;;;;;2.83;2.62;;;5.10;99.90;;;;;;459861;258;27507;-67
2022/01/30 00:27:29;;;;;;;3.05;2.85;;;5.10;99.90;;;;;;459906;258;27498;-68
2022/01/30 00:29:22;;;;;;;3.65;3.35;;;5.10;99.90;;;;;;459912;258;27571;-68
2022/01/30 00:31:25;;;;;;;3.80;3.50;;;5.10;99.90;;;;;;459857;258;27467;-67
2022/01/30 00:33:24;;;;;;;3.72;3.42;;;5.10;99.90;;;;;;459855;258;27499;-68
2022/01/30 00:35:26;;;;;;;3.58;3.28;;;5.10;99.90;;;;;;459807;258;27469;-68
2022/01/30 00:37:27;;;;;;;4.00;3.70;;;5.10;99.90;;;;;;459877;258;27503;-68
2022/01/30 00:39:28;;;;;;;3.60;3.30;;;5.10;99.90;;;;;;459885;258;27490;-67
2022/01/30 00:41:29;;;;;;;3.60;3.30;;;5.20;99.90;;;;;;459857;258;27541;-67
2022/01/30 00:43:31;;;;;;;3.83;3.53;;;5.10;99.90;;;;;;459857;258;28014;-67
2022/01/30 00:45:32;;;;;;;4.20;3.80;;;5.10;99.90;;;;;;460316;258;27930;-68
2022/01/30 00:47:33;;;;;;;3.33;3.10;;;5.20;99.90;;;;;;459856;258;27938;-70
2022/01/30 00:49:34;;;;;;;3.90;3.60;;;5.20;99.90;;;;;;459873;258;27582;-68
2022/01/30 00:51:37;;;;;;;3.80;3.50;;;5.20;99.90;;;;;;459844;258;27462;-70
2022/01/30 00:53:37;;;;;;;4.22;3.85;;;5.20;99.90;;;;;;459827;258;27499;-69
2022/01/30 00:55:38;;;;;;;3.60;3.30;;;5.20;99.90;;;;;;459870;258;27467;-68
2022/01/30 00:57:39;;;;;;;4.50;4.10;;;5.20;99.90;;;;;;459878;258;27498;-67
2022/01/30 00:59:41;;;;;;;4.12;3.72;;;5.20;99.90;;;;;;459856;258;27493;-69
2022/01/30 01:01:42;;;;;;;4.05;3.70;;;5.20;99.90;;;;;;459870;258;27547;-70
2022/01/30 01:03:43;;;;;;;3.80;3.50;;;5.20;99.90;;;;;;459855;258;27502;-67
2022/01/30 01:05:44;;;;;;;4.50;3.50;;;5.20;99.90;;;;;;459834;258;27475;-67
2022/01/30 01:07:48;;;;;;;3.50;3.20;;;5.10;99.90;;;;;;459883;258;27971;-69
2022/01/30 01:10:02;;;;;;;3.25;3.00;;;5.10;99.90;;;;;;459855;258;27958;-68
2022/01/30 01:12:30;;;;;;;3.75;3.45;;;5.10;99.90;;;;;;459652;258;28066;-67
2022/01/30 01:23:24;;;;;;;3.78;3.47;;;5.20;99.90;;;;;;460342;257;27607;-67
2022/01/30 01:23:28;;;;;;;4.47;4.07;;;5.20;99.90;;;;;;459974;258;27463;-68
2022/01/30 01:25:21;;;;;;;4.20;3.90;;;5.20;99.90;;;;;;459849;258;27622;-68
2022/01/30 01:27:23;;;;;;;4.75;4.30;;;5.20;99.90;;;;;;459858;255;27455;-68
2022/01/30 01:29:24;;;;;;;5.82;5.25;;;5.20;99.90;;;;;;459882;258;27543;-68
2022/01/30 01:31:25;;;;;;;5.43;4.93;;;5.20;99.90;;;;;;459848;258;27606;-68
2022/01/30 01:33:35;;;;;;;5.25;4.75;;;5.10;99.90;;;;;;459771;258;27519;-68
2022/01/30 01:35:28;;;;;;;5.50;5.00;;;5.10;99.90;;;;;;459702;258;27992;-67
2022/01/30 01:37:29;;;;;;;6.50;5.53;;;5.00;99.90;;;;;;459695;258;28930;-67
2022/01/30 01:39:30;;;;;;;5.65;4.57;;;5.00;99.90;;;;;;459703;258;27941;-67
2022/01/30 01:41:33;;;;;;;5.55;4.95;;;5.00;99.90;;;;;;459733;258;27500;-68
2022/01/30 01:43:34;;;;;;;5.25;4.43;;;5.00;99.90;;;;;;459842;258;27552;-67
2022/01/30 01:45:38;;;;;;;5.47;4.97;;;5.00;99.90;;;;;;459849;258;27575;-68
2022/01/30 01:47:37;;;;;;;5.95;5.35;;;5.10;99.90;;;;;;459883;254;27599;-68
2022/01/30 01:49:39;;;;;;;6.05;5.40;;;5.10;99.90;;;;;;459860;258;27543;-68
2022/01/30 01:51:46;;;;;;;6.68;5.80;;;5.10;99.90;;;;;;459845;258;27514;-68
2022/01/30 01:53:40;;;;;;;6.28;5.12;;;5.10;99.90;;;;;;459850;258;28066;-68
2022/01/30 01:55:41;;;;;;;6.25;5.60;;;5.10;99.90;;;;;;459894;258;28136;-67
2022/01/30 01:57:43;;;;;;;7.35;5.57;;;5.10;99.90;;;;;;459887;258;27984;-68
2022/01/30 01:59:44;;;;;;;6.30;5.30;;;5.10;99.90;;;;;;459883;258;28065;-68
2022/01/30 02:01:49;;;;;;;5.70;5.03;;;5.10;99.90;;;;;;459874;258;27568;-68
2022/01/30 02:03:47;;;;;;;7.30;5.70;;;5.10;99.90;;;;;;459855;258;27472;-67
2022/01/30 02:05:52;;;;;;;6.15;5.32;;;5.20;99.90;;;;;;459871;257;27502;-68
2022/01/30 02:08:22;;;;;;;6.93;5.70;;;5.20;99.90;;;;;;459879;258;27514;-68
2022/01/30 02:09:54;;;;;;;8.63;5.90;;;5.20;99.90;;;;;;459947;258;29025;-68
2022/01/30 02:11:55;;;;;;;5.65;5.10;;;5.20;99.90;;;;;;459861;258;27605;-68
2022/01/30 02:14:15;;;;;;;6.85;5.68;;;5.20;99.90;;;;;;459902;258;27495;-67
2022/01/30 02:27:10;;;;;;;5.95;5.15;;;5.00;99.90;;;;;;459880;258;28061;-68
2022/01/30 02:29:11;;;;;;;5.93;5.07;;;5.00;99.90;;;;;;459885;258;29097;-68
2022/01/30 02:31:19;;;;;;;7.57;5.55;;;5.00;99.90;;;;;;459860;258;27535;-68
2022/01/30 02:33:14;;;;;;;12.68;5.82;;;5.00;99.90;;;;;;459834;258;27463;-68
2022/01/30 02:35:15;;;;;;;8.30;5.30;;;5.00;99.90;;;;;;459890;258;27564;-69
2022/01/30 02:37:17;;;;;;;9.70;5.32;;;4.90;99.90;;;;;;459885;258;27506;-68
2022/01/30 02:39:18;;;;;;;9.10;5.82;;;4.90;99.90;;;;;;459846;258;27543;-70
2022/01/30 02:41:19;;;;;;;8.00;5.00;;;4.80;99.90;;;;;;459848;258;27507;-70
2022/01/30 02:43:24;;;;;;;14.70;5.65;;;4.80;99.90;;;;;;459861;258;27488;-68
2022/01/30 02:45:25;;;;;;;7.93;5.12;;;4.80;99.90;;;;;;459880;258;27467;-68
2022/01/30 02:47:37;;;;;;;12.93;5.45;;;4.70;99.90;;;;;;459832;258;27958;-70
2022/01/30 02:49:29;;;;;;;10.35;4.70;;;4.70;99.90;;;;;;459895;258;27914;-69
2022/01/30 02:51:33;;;;;;;8.40;4.70;;;4.70;99.90;;;;;;459836;258;29178;-68
2022/01/30 02:53:31;;;;;;;10.57;5.30;;;4.60;99.90;;;;;;459881;258;27498;-68
2022/01/30 02:55:28;;;;;;;9.57;5.03;;;4.60;99.90;;;;;;459689;258;27459;-67
2022/01/30 02:57:29;;;;;;;17.85;5.45;;;4.60;99.90;;;;;;459880;258;27507;-68
2022/01/30 02:59:31;;;;;;;14.60;4.97;;;4.60;99.90;;;;;;459871;258;27560;-68
2022/01/30 03:01:31;;;;;;;15.50;5.65;;;4.50;99.90;;;;;;459864;258;27502;-68
2022/01/30 03:03:33;;;;;;;16.00;4.80;;;4.60;99.90;;;;;;459869;258;27511;-67
2022/01/30 03:05:34;;;;;;;13.73;5.10;;;4.60;99.90;;;;;;459850;258;27560;-68
2022/01/30 03:07:35;;;;;;;16.10;5.55;;;4.50;99.90;;;;;;459879;258;27578;-67
2022/01/30 03:09:36;;;;;;;10.75;4.90;;;4.50;99.90;;;;;;459874;258;28008;-68
2022/01/30 03:11:38;;;;;;;13.80;4.43;;;4.50;99.90;;;;;;459864;258;27951;-68
2022/01/30 03:13:39;;;;;;;11.32;4.75;;;4.50;99.90;;;;;;459883;258;27522;-68
2022/01/30 03:15:40;;;;;;;8.90;4.55;;;4.50;99.90;;;;;;459866;258;27450;-67
2022/01/30 03:17:41;;;;;;;7.37;3.97;;;4.40;99.90;;;;;;459868;258;27507;-68
2022/01/30 03:19:43;;;;;;;8.68;4.82;;;4.40;99.90;;;;;;459853;258;27464;-72
2022/01/30 03:21:44;;;;;;;11.70;4.60;;;4.40;99.90;;;;;;459868;258;27472;-68
2022/01/30 03:23:45;;;;;;;11.88;4.85;;;4.40;99.90;;;;;;459906;258;27534;-68
2022/01/30 03:25:53;;;;;;;16.45;6.05;;;4.40;99.90;;;;;;459896;258;27462;-67
2022/01/30 03:27:54;;;;;;;13.73;4.85;;;4.50;99.90;;;;;;459887;258;27590;-68
2022/01/30 03:30:03;;;;;;;14.40;4.60;;;4.50;99.90;;;;;;459881;258;27447;-68
2022/01/30 03:31:56;;;;;;;10.40;4.35;;;4.60;99.90;;;;;;459871;258;27591;-68
2022/01/30 03:33:57;;;;;;;11.57;4.12;;;4.60;99.90;;;;;;459878;258;27975;-68
2022/01/30 03:35:58;;;;;;;10.25;4.50;;;4.60;99.90;;;;;;459875;258;28011;-68
2022/01/30 03:38:00;;;;;;;12.80;4.15;;;4.60;99.90;;;;;;459881;258;27976;-68
2022/01/30 03:40:01;;;;;;;9.27;4.25;;;4.60;99.90;;;;;;459850;258;27493;-67
2022/01/30 03:42:02;;;;;;;12.18;4.30;;;4.60;99.90;;;;;;459855;258;27567;-68
2022/01/30 03:44:03;;;;;;;12.68;4.50;;;4.70;99.90;;;;;;460366;258;27637;-68
2022/01/30 03:46:05;;;;;;;6.37;3.72;;;4.70;99.90;;;;;;459874;258;27575;-68
2022/01/30 03:48:06;;;;;;;14.50;4.65;;;4.70;99.90;;;;;;459861;258;27572;-67
2022/01/30 03:50:07;;;;;;;11.48;4.45;;;4.70;99.90;;;;;;459855;258;27470;-68
2022/01/30 03:52:08;;;;;;;8.77;3.90;;;4.70;99.90;;;;;;459879;258;27484;-68
2022/01/30 03:54:10;;;;;;;10.85;4.78;;;4.70;99.90;;;;;;459887;258;27535;-68
2022/01/30 03:56:11;;;;;;;10.90;4.72;;;4.70;99.90;;;;;;459860;258;27912;-67
2022/01/30 03:58:13;;;;;;;7.55;3.67;;;4.70;99.90;;;;;;459867;258;27986;-68
2022/01/30 04:00:13;;;;;;;9.05;4.28;;;4.70;99.90;;;;;;459829;258;28013;-68
2022/01/30 04:02:15;;;;;;;19.17;4.80;;;4.70;99.90;;;;;;459873;258;27460;-68
2022/01/30 04:04:16;;;;;;;7.82;3.95;;;4.70;99.90;;;;;;459875;258;27530;-68
2022/01/30 04:06:17;;;;;;;10.95;4.15;;;4.70;99.90;;;;;;459859;258;27463;-68
2022/01/30 04:08:18;;;;;;;8.23;4.45;;;4.70;99.90;;;;;;459862;258;27486;-68
2022/01/30 04:10:20;;;;;;;11.52;4.87;;;4.70;99.90;;;;;;459860;258;27519;-68
2022/01/30 04:12:21;;;;;;;14.07;4.68;;;4.70;99.90;;;;;;459864;258;27479;-67
2022/01/30 04:14:22;;;;;;;17.02;4.80;;;4.70;99.90;;;;;;459877;258;27542;-68
2022/01/30 04:16:23;;;;;;;10.98;4.40;;;4.70;99.90;;;;;;459845;258;27915;-67
2022/01/30 04:18:25;;;;;;;9.43;4.00;;;4.70;99.90;;;;;;459871;258;28041;-68
2022/01/30 04:20:26;;;;;;;12.88;4.70;;;4.70;99.90;;;;;;459862;258;28136;-68
2022/01/30 04:22:27;;;;;;;14.07;4.32;;;4.70;99.90;;;;;;459859;258;27534;-68
2022/01/30 04:24:28;;;;;;;11.35;3.83;;;4.70;99.90;;;;;;459872;258;27495;-68
2022/01/30 04:26:30;;;;;;;14.63;4.10;;;4.70;99.90;;;;;;459862;258;27507;-68
2022/01/30 04:28:31;;;;;;;11.20;4.47;;;4.70;99.90;;;;;;459855;258;27499;-68
2022/01/30 04:30:32;;;;;;;9.90;4.30;;;4.60;99.90;;;;;;459877;258;27502;-68
2022/01/30 04:32:34;;;;;;;11.32;4.25;;;4.60;99.90;;;;;;459861;258;27587;-68
2022/01/30 04:34:35;;;;;;;9.55;4.50;;;4.60;99.90;;;;;;459839;258;27571;-68
2022/01/30 04:36:41;;;;;;;14.55;4.80;;;4.50;99.90;;;;;;459873;258;27558;-68
2022/01/30 04:40:09;;;;;;;19.37;4.95;;;4.50;99.90;;;;;;459868;258;28043;-68
2022/01/30 04:55:13;;;;;;;12.57;5.50;;;4.60;99.90;;;;;;454387;258;27490;-68
2022/01/30 05:01:13;;;;;;;11.43;4.55;;;4.30;99.90;;;;;;460309;258;27475;-68
2022/01/30 05:05:49;;;;;;;14.48;4.60;;;4.30;99.90;;;;;;459878;258;27947;-68
2022/01/30 05:07:39;;;;;;;10.85;4.95;;;4.30;99.90;;;;;;460310;258;27545;-68
2022/01/30 05:09:41;;;;;;;15.73;4.50;;;4.20;99.90;;;;;;459872;258;27467;-67
2022/01/30 05:11:42;;;;;;;17.05;4.68;;;4.20;99.90;;;;;;459878;258;27459;-68
2022/01/30 05:13:47;;;;;;;15.23;4.40;;;4.10;99.90;;;;;;459833;258;28081;-68
2022/01/30 05:15:44;;;;;;;12.93;4.75;;;4.10;99.90;;;;;;459857;258;28026;-68
2022/01/30 05:17:46;;;;;;;16.25;5.25;;;4.10;99.90;;;;;;459857;258;27571;-68
2022/01/30 05:19:47;;;;;;;19.20;4.70;;;4.10;99.90;;;;;;459872;258;27492;-68
2022/01/30 05:21:48;;;;;;;12.45;3.75;;;4.10;99.90;;;;;;459854;258;27455;-68
2022/01/30 05:23:49;;;;;;;10.27;4.00;;;4.00;99.90;;;;;;459839;258;27499;-68
2022/01/30 05:25:51;;;;;;;9.93;3.92;;;4.00;99.90;;;;;;459854;258;27582;-68
2022/01/30 05:27:52;;;;;;;9.75;3.83;;;3.90;99.90;;;;;;459882;258;27506;-68
2022/01/30 05:29:53;;;;;;;18.20;4.60;;;3.90;99.90;;;;;;459893;258;27595;-68
2022/01/30 05:31:54;;;;;;;13.60;4.43;;;3.90;99.90;;;;;;459887;258;27482;-68
2022/01/30 05:33:56;;;;;;;13.50;4.50;;;3.80;99.90;;;;;;459877;258;27956;-68
2022/01/30 05:35:57;;;;;;;17.42;4.65;;;3.80;99.90;;;;;;459878;258;28003;-68
2022/01/30 05:37:58;;;;;;;20.42;4.90;;;3.80;99.90;;;;;;459880;258;27947;-68
2022/01/30 05:39:59;;;;;;;12.80;3.60;;;3.80;99.90;;;;;;459902;258;27506;-68
2022/01/30 05:42:01;;;;;;;14.13;4.68;;;3.70;99.90;;;;;;459912;258;27452;-68
2022/01/30 05:44:16;;;;;;;17.27;4.55;;;3.70;99.90;;;;;;459861;258;27498;-68
2022/01/30 05:46:13;;;;;;;14.45;3.95;;;3.70;99.90;;;;;;459259;258;27466;-69
2022/01/30 05:48:15;;;;;;;10.68;4.55;;;3.70;99.90;;;;;;459678;258;27964;-68
2022/01/30 05:50:11;;;;;;;11.38;4.28;;;3.70;99.90;;;;;;459877;258;27475;-68
2022/01/30 05:52:12;;;;;;;9.02;3.90;;;3.60;99.90;;;;;;459859;258;27602;-68
2022/01/30 05:54:14;;;;;;;5.18;3.30;;;3.50;99.90;;;;;;459888;258;27503;-68
2022/01/30 05:56:15;;;;;;;4.72;3.40;;;3.50;99.90;;;;;;459912;258;27598;-68
2022/01/30 05:58:16;;;;;;;9.70;3.33;;;3.40;99.90;;;;;;459874;258;28033;-68
2022/01/30 06:00:17;;;;;;;8.23;3.35;;;3.50;99.90;;;;;;459858;258;27931;-68
2022/01/30 06:02:19;;;;;;;8.45;3.90;;;3.50;99.90;;;;;;459891;258;28021;-68
2022/01/30 06:04:20;;;;;;;7.53;3.60;;;3.50;99.90;;;;;;459901;257;27996;-68
2022/01/30 06:06:21;;;;;;;9.25;3.87;;;3.50;99.90;;;;;;459908;258;27542;-68
2022/01/30 06:09:01;;;;;;;8.27;3.37;;;3.60;99.90;;;;;;459908;254;27535;-68
2022/01/30 06:10:30;;;;;;;6.07;4.00;;;3.60;99.90;;;;;;457940;258;28061;-68
2022/01/30 06:12:31;;;;;;;9.15;3.70;;;3.60;99.90;;;;;;459887;258;27917;-68
2022/01/30 06:14:33;;;;;;;8.95;3.62;;;3.60;99.90;;;;;;459912;258;27962;-68
2022/01/30 06:16:34;;;;;;;9.68;3.25;;;3.60;99.90;;;;;;459881;258;27471;-68
2022/01/30 06:18:35;;;;;;;7.45;3.50;;;3.60;99.90;;;;;;459877;258;27494;-68
2022/01/30 06:20:37;;;;;;;7.65;2.83;;;3.60;99.90;;;;;;459910;258;27535;-68
2022/01/30 06:22:38;;;;;;;10.27;3.65;;;3.60;99.90;;;;;;459898;258;27602;-68
2022/01/30 06:24:40;;;;;;;4.65;3.30;;;3.60;99.90;;;;;;459878;258;27484;-67
2022/01/30 06:26:41;;;;;;;9.88;3.22;;;3.60;99.90;;;;;;459882;258;28089;-68
2022/01/30 06:28:42;;;;;;;10.52;3.65;;;3.60;99.90;;;;;;459901;258;28045;-68
2022/01/30 06:30:44;;;;;;;5.35;3.10;;;3.70;99.90;;;;;;459908;258;27464;-68
2022/01/30 06:32:45;;;;;;;9.48;3.30;;;3.70;99.90;;;;;;459882;258;27589;-68
2022/01/30 06:34:46;;;;;;;10.23;3.50;;;3.70;99.90;;;;;;459888;258;27550;-68
2022/01/30 06:36:47;;;;;;;4.72;2.87;;;3.60;99.90;;;;;;459865;258;27498;-68
2022/01/30 06:38:50;;;;;;;8.02;3.12;;;3.70;99.90;;;;;;459907;258;27507;-68
2022/01/30 06:40:50;;;;;;;4.80;2.83;;;3.60;99.90;;;;;;459888;258;27908;-68
2022/01/30 06:42:51;;;;;;;6.28;2.87;;;3.70;99.90;;;;;;459862;258;28063;-68
2022/01/30 06:44:52;;;;;;;7.35;3.15;;;3.60;99.90;;;;;;459860;258;28010;-68
2022/01/30 06:46:54;;;;;;;6.05;2.97;;;3.60;99.90;;;;;;459873;258;27998;-68
2022/01/30 06:48:55;;;;;;;7.45;3.08;;;3.60;99.90;;;;;;459898;258;27534;-68
2022/01/30 06:50:56;;;;;;;9.50;3.03;;;3.60;99.90;;;;;;459872;258;27545;-68
2022/01/30 06:52:57;;;;;;;8.82;3.03;;;3.50;99.90;;;;;;459863;258;27642;-68
2022/01/30 06:54:59;;;;;;;9.70;3.20;;;3.50;99.90;;;;;;459878;258;27466;-68
2022/01/30 06:57:00;;;;;;;7.82;2.70;;;3.50;99.90;;;;;;459891;258;27463;-68
2022/01/30 06:59:01;;;;;;;4.60;2.70;;;3.50;99.90;;;;;;459892;254;27518;-68
2022/01/30 07:01:02;;;;;;;6.82;2.83;;;3.40;99.90;;;;;;459875;258;27508;-68
2022/01/30 07:03:04;;;;;;;6.78;3.12;;;3.40;99.90;;;;;;459876;258;27554;-68
2022/01/30 07:05:05;;;;;;;6.78;3.08;;;3.40;99.90;;;;;;459870;258;27834;-68
2022/01/30 07:07:06;;;;;;;11.05;4.05;;;3.50;99.90;;;;;;459884;258;27555;-68
2022/01/30 07:09:07;;;;;;;6.78;3.12;;;3.40;99.90;;;;;;459872;258;28076;-68
2022/01/30 07:11:09;;;;;;;9.68;3.50;;;3.40;99.90;;;;;;459859;258;27911;-68
2022/01/30 07:13:12;;;;;;;14.00;3.67;;;3.40;99.90;;;;;;459845;258;28105;-68
2022/01/30 07:15:11;;;;;;;18.52;3.85;;;3.30;99.90;;;;;;459857;258;27578;-68
2022/01/30 07:17:12;;;;;;;7.07;4.03;;;3.30;99.90;;;;;;459874;258;27552;-68
2022/01/30 07:19:14;;;;;;;12.23;3.80;;;3.30;99.90;;;;;;459856;258;28036;-68
2022/01/30 07:21:15;;;;;;;9.40;3.58;;;3.20;99.90;;;;;;459868;258;27920;-68
2022/01/30 07:23:16;;;;;;;8.25;3.40;;;3.20;99.90;;;;;;459851;258;27948;-68
2022/01/30 07:25:17;;;;;;;9.88;3.60;;;3.20;99.90;;;;;;459896;258;27615;-68
2022/01/30 07:27:19;;;;;;;12.68;3.87;;;3.20;99.90;;;;;;459877;258;27454;-68
2022/01/30 07:29:20;;;;;;;9.60;3.85;;;3.10;99.90;;;;;;459871;258;27514;-68
2022/01/30 07:31:21;;;;;;;9.43;3.53;;;3.20;99.90;;;;;;459849;258;27528;-68
2022/01/30 07:33:22;;;;;;;16.90;4.30;;;3.10;99.90;;;;;;459852;258;27495;-68
2022/01/30 07:35:24;;;;;;;6.90;3.17;;;3.10;99.90;;;;;;459880;258;27586;-68
2022/01/30 07:37:25;;;;;;;14.60;3.80;;;3.20;99.90;;;;;;459868;258;27594;-68
2022/01/30 07:39:29;;;;;;;9.45;3.47;;;3.20;99.90;;;;;;460352;258;27607;-68
2022/01/30 07:41:27;;;;;;;7.90;3.75;;;3.20;99.90;;;;;;459852;258;27454;-68
2022/01/30 07:43:29;;;;;;;4.43;2.90;;;3.20;99.90;;;;;;459879;258;27932;-68
2022/01/30 07:45:30;;;;;;;9.05;4.15;;;3.20;99.90;;;;;;460343;258;27993;-68
2022/01/30 07:47:31;;;;;;;7.25;3.10;;;3.30;99.90;;;;;;459871;258;28060;-68
2022/01/30 07:49:32;;;;;;;5.62;3.40;;;3.30;99.90;;;;;;459881;258;28016;-68
2022/01/30 07:51:34;;;;;;;8.50;2.85;;;3.30;99.90;;;;;;459881;258;27757;-68
2022/01/30 07:53:35;;;;;;;6.35;3.28;;;3.40;99.90;;;;;;459880;258;27546;-68
2022/01/30 07:55:36;;;;;;;7.20;2.75;;;3.40;99.90;;;;;;459856;258;27507;-68
2022/01/30 07:57:37;;;;;;;11.80;3.33;;;3.40;99.90;;;;;;459884;258;27467;-68
2022/01/30 07:59:39;;;;;;;6.00;3.50;;;3.50;99.90;;;;;;459881;258;27498;-68
2022/01/30 08:01:40;;;;;;;2.60;2.40;;;3.40;99.90;;;;;;459884;258;27499;-68
2022/01/30 08:03:41;;;;;;;3.90;2.55;;;3.30;99.90;;;;;;459872;258;27530;-68
2022/01/30 08:05:42;;;;;;;6.50;3.00;;;3.30;99.90;;;;;;459861;258;27523;-68
2022/01/30 08:07:44;;;;;;;5.45;2.92;;;3.30;99.90;;;;;;459874;258;27476;-68
2022/01/30 08:09:45;;;;;;;6.85;2.83;;;3.30;99.90;;;;;;459854;258;27506;-68
2022/01/30 08:11:46;;;;;;;4.15;2.65;;;3.40;99.90;;;;;;459879;258;27987;-68
2022/01/30 08:13:47;;;;;;;5.90;3.58;;;3.50;99.90;;;;;;459867;258;27995;-68
2022/01/30 08:15:49;;;;;;;4.78;2.95;;;3.50;99.90;;;;;;459669;258;29177;-68
2022/01/30 08:17:50;;;;;;;7.05;2.80;;;3.50;99.90;;;;;;459868;258;29016;-68
2022/01/30 08:19:51;;;;;;;9.00;3.50;;;3.60;99.90;;;;;;459854;258;27515;-68
2022/01/30 08:21:53;;;;;;;5.15;2.45;;;3.60;99.90;;;;;;459884;258;27578;-68
2022/01/30 08:23:54;;;;;;;5.18;2.50;;;3.60;99.90;;;;;;459867;258;27539;-68
2022/01/30 08:25:55;;;;;;;4.60;3.05;;;3.60;99.90;;;;;;459869;258;27506;-68
2022/01/30 08:27:56;;;;;;;8.90;3.15;;;3.70;99.90;;;;;;459890;258;27534;-68
2022/01/30 08:29:57;;;;;;;7.03;3.15;;;3.70;99.90;;;;;;459886;258;27490;-68
2022/01/30 08:31:59;;;;;;;8.63;3.03;;;3.70;99.90;;;;;;459900;258;27534;-68
2022/01/30 08:34:00;;;;;;;4.37;2.83;;;3.80;99.90;;;;;;459880;258;27613;-68
2022/01/30 08:36:01;;;;;;;4.43;2.72;;;3.80;99.90;;;;;;459848;258;27523;-68
2022/01/30 08:38:02;;;;;;;3.50;2.80;;;3.90;99.90;;;;;;459856;258;27480;-68
2022/01/30 08:40:04;;;;;;;3.17;2.87;;;3.90;99.90;;;;;;459853;258;27935;-68
2022/01/30 08:42:05;;;;;;;4.37;3.03;;;3.90;99.90;;;;;;459877;258;28056;-68
2022/01/30 08:44:06;;;;;;;8.30;3.25;;;4.00;99.90;;;;;;459863;258;27926;-68
2022/01/30 08:46:07;;;;;;;7.32;3.28;;;4.00;99.90;;;;;;459849;258;27515;-68
2022/01/30 08:48:09;;;;;;;6.60;3.35;;;4.00;99.90;;;;;;459849;258;27484;-68
2022/01/30 08:50:10;;;;;;;4.53;3.03;;;4.10;99.90;;;;;;459880;258;27483;-68
2022/01/30 08:52:16;;;;;;;5.53;2.90;;;4.10;99.90;;;;;;459866;258;27507;-68
2022/01/30 08:54:12;;;;;;;6.82;2.70;;;4.20;99.90;;;;;;459827;258;27480;-68
2022/01/30 08:56:14;;;;;;;7.03;2.90;;;4.20;99.90;;;;;;459833;258;27515;-69
2022/01/30 08:58:15;;;;;;;6.00;3.05;;;4.30;99.90;;;;;;459864;258;27487;-71
2022/01/30 09:00:16;;;;;;;10.45;2.85;;;4.30;99.90;;;;;;459847;258;27471;-70
2022/01/30 09:02:19;;;;;;;6.60;3.25;;;4.30;99.90;;;;;;459909;258;27549;-68
2022/01/30 09:04:20;;;;;;;6.18;3.30;;;4.30;99.90;;;;;;459860;258;27546;-68
2022/01/30 09:06:20;;;;;;;7.25;2.47;;;4.40;99.90;;;;;;459827;258;27969;-68
2022/01/30 09:08:21;;;;;;;5.20;2.58;;;4.40;99.90;;;;;;459900;258;28015;-68
2022/01/30 09:10:22;;;;;;;4.00;2.80;;;4.40;99.90;;;;;;460341;258;28050;-68
2022/01/30 09:12:24;;;;;;;5.10;3.00;;;4.50;99.90;;;;;;459872;258;27522;-68
2022/01/30 09:14:25;;;;;;;5.20;3.50;;;4.50;99.90;;;;;;459855;258;27555;-68
2022/01/30 09:16:26;;;;;;;4.72;2.95;;;4.50;99.90;;;;;;459867;258;27546;-68
2022/01/30 09:18:27;;;;;;;8.98;3.62;;;4.50;99.90;;;;;;459884;258;27610;-68
2022/01/30 09:20:29;;;;;;;10.75;4.10;;;4.50;99.90;;;;;;459873;258;27467;-70
2022/01/30 09:22:30;;;;;;;7.68;2.80;;;4.50;99.90;;;;;;459864;258;27583;-70
2022/01/30 09:24:31;;;;;;;9.25;3.40;;;4.40;99.90;;;;;;459833;258;27595;-68
2022/01/30 09:26:32;;;;;;;4.47;2.70;;;4.40;99.90;;;;;;459872;258;27501;-68
2022/01/30 09:28:34;;;;;;;11.00;3.55;;;4.40;99.90;;;;;;459895;258;27595;-69
2022/01/30 09:30:35;;;;;;;6.95;3.17;;;4.40;99.90;;;;;;459892;258;28038;-68
2022/01/30 09:32:36;;;;;;;10.15;4.05;;;4.40;99.90;;;;;;459868;258;27985;-68
2022/01/30 09:34:37;;;;;;;8.63;3.45;;;4.50;99.90;;;;;;459887;258;27582;-68
2022/01/30 09:36:39;;;;;;;19.15;4.00;;;4.50;99.90;;;;;;459889;258;27471;-68
2022/01/30 09:38:40;;;;;;;7.87;3.60;;;4.50;99.90;;;;;;459884;258;27494;-68
2022/01/30 09:40:41;;;;;;;9.32;3.50;;;4.50;99.90;;;;;;459871;258;27574;-68
2022/01/30 09:42:44;;;;;;;6.22;3.20;;;4.50;99.90;;;;;;459866;258;27515;-68
2022/01/30 09:44:44;;;;;;;12.32;3.47;;;4.60;99.90;;;;;;459867;258;27622;-68
2022/01/30 09:46:45;;;;;;;5.95;2.75;;;4.60;99.90;;;;;;459905;258;27487;-68
2022/01/30 09:48:47;;;;;;;8.35;3.75;;;4.70;99.90;;;;;;459913;258;27518;-68
2022/01/30 09:50:47;;;;;;;6.65;3.00;;;4.70;99.90;;;;;;459889;258;27935;-68
2022/01/30 09:52:49;;;;;;;8.70;3.67;;;4.80;99.90;;;;;;459861;258;28108;-68
2022/01/30 09:54:50;;;;;;;9.55;3.78;;;4.90;99.90;;;;;;459888;258;28141;-70
2022/01/30 09:56:51;;;;;;;10.55;3.80;;;4.90;99.90;;;;;;459896;258;27499;-70
2022/01/30 09:58:52;;;;;;;7.20;3.70;;;5.00;99.90;;;;;;459897;258;27525;-70
2022/01/30 10:00:54;;;;;;;7.62;3.60;;;5.10;99.90;;;;;;459888;258;27570;-70
2022/01/30 10:02:55;;;;;;;5.55;3.55;;;5.10;99.90;;;;;;459864;258;27497;-70
2022/01/30 10:04:56;;;;;;;13.25;3.55;;;5.30;99.90;;;;;;459888;258;27502;-70
2022/01/30 10:07:00;;;;;;;10.55;3.50;;;5.30;99.90;;;;;;459860;258;27503;-70
2022/01/30 10:09:05;;;;;;;7.25;4.05;;;5.20;99.90;;;;;;459882;258;27575;-70
2022/01/30 10:11:15;;;;;;;5.12;3.75;;;5.20;99.90;;;;;;459885;258;27922;-70
2022/01/30 10:13:01;;;;;;;9.90;4.18;;;5.20;99.90;;;;;;459908;258;27978;-71
2022/01/30 10:15:03;;;;;;;10.05;3.92;;;5.30;99.90;;;;;;459893;258;27506;-70
2022/01/30 10:17:04;;;;;;;9.73;4.50;;;5.30;99.90;;;;;;459897;258;27595;-70
2022/01/30 10:19:05;;;;;;;11.35;3.95;;;5.20;99.90;;;;;;459882;258;27582;-70
2022/01/30 10:21:06;;;;;;;8.55;3.75;;;5.20;99.90;;;;;;459869;258;27533;-70
2022/01/30 10:23:11;;;;;;;8.50;4.40;;;5.20;99.90;;;;;;459882;258;27548;-70
2022/01/30 10:25:12;;;;;;;7.62;3.80;;;5.10;99.90;;;;;;459891;258;27463;-70
2022/01/30 10:27:13;;;;;;;11.57;3.60;;;5.10;99.90;;;;;;459890;258;27533;-70
2022/01/30 10:29:14;;;;;;;11.55;3.60;;;5.00;99.90;;;;;;459907;258;27526;-70
2022/01/30 10:31:17;;;;;;;9.40;3.40;;;5.00;99.90;;;;;;459913;258;27959;-70
2022/01/30 10:33:17;;;;;;;8.95;3.87;;;4.90;99.90;;;;;;459883;258;28070;-70
2022/01/30 10:35:18;;;;;;;9.52;4.03;;;4.90;99.90;;;;;;459887;258;27475;-70
2022/01/30 10:37:19;;;;;;;10.90;3.95;;;4.90;99.90;;;;;;459874;258;27614;-70
2022/01/30 10:39:23;;;;;;;14.35;3.50;;;4.80;99.90;;;;;;459869;258;28077;-70
2022/01/30 10:41:23;;;;;;;13.05;3.95;;;4.80;99.90;;;;;;459870;258;27482;-70
2022/01/30 10:43:23;;;;;;;11.20;4.25;;;4.80;99.90;;;;;;459865;258;27633;-70
2022/01/30 10:45:25;;;;;;;5.72;3.53;;;4.90;99.90;;;;;;459885;258;27470;-70
2022/01/30 10:47:26;;;;;;;8.23;3.22;;;4.90;99.90;;;;;;460336;258;27579;-70
2022/01/30 10:49:27;;;;;;;14.05;3.65;;;5.00;99.90;;;;;;459882;258;28789;-70
2022/01/30 10:51:28;;;;;;;10.18;3.20;;;4.90;99.90;;;;;;459871;258;28074;-70
2022/01/30 10:53:29;;;;;;;14.87;3.60;;;4.90;99.90;;;;;;459871;258;27526;-70
2022/01/30 10:55:31;;;;;;;5.37;3.25;;;4.90;99.90;;;;;;459857;258;27503;-70
2022/01/30 10:57:32;;;;;;;9.15;3.62;;;5.10;99.90;;;;;;459855;258;27584;-71
2022/01/30 10:59:36;;;;;;;11.02;4.00;;;5.10;99.90;;;;;;460315;258;27513;-70
2022/01/30 11:01:35;;;;;;;7.05;3.17;;;5.30;99.90;;;;;;459737;258;27503;-70
2022/01/30 11:03:37;;;;;;;5.68;3.15;;;5.30;99.90;;;;;;459685;258;27475;-70
2022/01/30 11:05:38;;;;;;;8.20;3.33;;;5.40;99.90;;;;;;459652;258;28047;-70
2022/01/30 11:07:39;;;;;;;10.52;3.33;;;5.60;99.90;;;;;;459718;258;28132;-70
2022/01/30 11:09:48;;;;;;;9.52;3.70;;;5.60;99.90;;;;;;459826;258;27976;-70
2022/01/30 11:11:50;;;;;;;12.30;3.70;;;5.60;99.90;;;;;;459893;258;27465;-71
2022/01/30 11:14:01;;;;;;;8.05;3.20;;;5.50;99.90;;;;;;459894;258;27611;-70
2022/01/30 11:15:54;;;;;;;16.05;4.18;;;5.50;99.90;;;;;;459779;258;28004;-70